Time;durP1;ratioP1;P1;durP2;ratioP2;P2;SDS_P1;SDS_P2;PMS_P1;PMS_P2;Temp;Humidity;BMP_temperature;BMP_pressure;BME280_temperature;BME280_humidity;BME280_pressure;Samples;Min_cycle;Max_cycle;Signal;HPM_P1;HPM_P2
2023/12/06 00:00:52;;;;;;;8.13;4.07;;;23.00;50.90;;;;;;5050543;28;20144;-67
2023/12/06 00:03:19;;;;;;;7.93;3.95;;;23.00;50.90;;;;;;5050708;28;20108;-68
2023/12/06 00:05:45;;;;;;;5.38;4.03;;;23.00;51.10;;;;;;5050574;28;20056;-67
2023/12/06 00:08:11;;;;;;;6.47;4.05;;;23.00;51.10;;;;;;5050569;28;20561;-68
2023/12/06 00:10:37;;;;;;;5.22;3.50;;;23.00;51.10;;;;;;5050501;28;20041;-68
2023/12/06 00:13:03;;;;;;;5.72;4.00;;;22.90;51.20;;;;;;5050437;28;20033;-68
2023/12/06 00:15:29;;;;;;;4.13;3.60;;;23.00;51.20;;;;;;5050383;28;20497;-68
2023/12/06 00:17:55;;;;;;;7.25;4.28;;;22.90;51.20;;;;;;5050517;28;20025;-67
2023/12/06 00:20:21;;;;;;;5.07;4.05;;;23.00;51.20;;;;;;5050534;28;20044;-67
2023/12/06 00:22:47;;;;;;;7.50;3.97;;;23.00;51.20;;;;;;5050466;28;20036;-67
2023/12/06 00:25:13;;;;;;;10.48;3.72;;;23.00;51.20;;;;;;5050413;28;20526;-68
2023/12/06 00:27:39;;;;;;;5.85;3.92;;;22.90;51.20;;;;;;5050383;28;20044;-68
2023/12/06 00:30:05;;;;;;;5.68;3.92;;;22.90;51.30;;;;;;5050402;28;20064;-67
2023/12/06 00:32:32;;;;;;;7.28;4.00;;;22.90;51.20;;;;;;5033304;28;20044;-67
2023/12/06 00:34:58;;;;;;;8.27;4.57;;;22.90;51.20;;;;;;5054417;28;20029;-67
2023/12/06 00:37:24;;;;;;;4.60;3.55;;;22.90;51.30;;;;;;5053872;28;20044;-68
2023/12/06 00:39:50;;;;;;;7.57;4.03;;;22.90;51.20;;;;;;5053913;28;20029;-68
2023/12/06 00:42:16;;;;;;;8.30;4.25;;;23.00;51.20;;;;;;5054130;28;20052;-68
2023/12/06 00:44:42;;;;;;;8.00;3.72;;;22.90;51.20;;;;;;5053770;28;20385;-67
2023/12/06 00:47:08;;;;;;;4.90;3.85;;;23.00;51.20;;;;;;5053906;28;20037;-68
2023/12/06 00:49:34;;;;;;;6.18;3.95;;;23.10;51.30;;;;;;5053664;28;20115;-66
2023/12/06 00:52:00;;;;;;;5.15;3.95;;;23.00;51.10;;;;;;5053799;28;20107;-68
2023/12/06 00:54:26;;;;;;;4.95;3.55;;;23.00;51.20;;;;;;5053922;28;20024;-68
2023/12/06 00:56:53;;;;;;;5.80;4.10;;;23.00;51.10;;;;;;5054023;28;20058;-67
2023/12/06 00:59:18;;;;;;;6.72;4.15;;;23.00;50.90;;;;;;5053897;28;20098;-68
2023/12/06 01:01:45;;;;;;;7.72;4.00;;;23.10;50.90;;;;;;5053289;28;20036;-67
2023/12/06 01:04:11;;;;;;;6.25;3.83;;;23.00;50.80;;;;;;5053660;28;20029;-68
2023/12/06 01:06:37;;;;;;;7.30;3.95;;;23.10;50.90;;;;;;5053456;28;20045;-68
2023/12/06 01:09:03;;;;;;;6.72;3.42;;;23.30;50.80;;;;;;5035623;28;20032;-67
2023/12/06 01:11:29;;;;;;;7.40;4.07;;;23.10;50.70;;;;;;5017801;28;20047;-68
2023/12/06 01:13:55;;;;;;;4.78;3.75;;;23.20;50.70;;;;;;5062709;28;20033;-68
2023/12/06 01:16:21;;;;;;;5.50;4.20;;;23.20;50.60;;;;;;5053237;28;20689;-67
2023/12/06 01:18:47;;;;;;;8.30;4.28;;;23.20;50.60;;;;;;5035731;28;20037;-68
2023/12/06 01:21:13;;;;;;;7.60;4.47;;;23.20;50.60;;;;;;5053090;28;20116;-68
2023/12/06 01:23:39;;;;;;;6.00;4.28;;;23.30;50.60;;;;;;5053267;28;20120;-68
2023/12/06 01:26:06;;;;;;;9.07;4.28;;;23.30;50.60;;;;;;5053186;28;20116;-67
2023/12/06 01:28:32;;;;;;;6.22;4.25;;;23.30;50.50;;;;;;5035159;28;20041;-68
2023/12/06 01:30:58;;;;;;;6.85;4.40;;;23.30;50.50;;;;;;5053982;28;20039;-68
2023/12/06 01:33:24;;;;;;;5.45;3.75;;;23.30;50.50;;;;;;5035052;28;20439;-68
2023/12/06 01:35:50;;;;;;;5.38;4.18;;;23.30;50.40;;;;;;5052910;28;20029;-67
2023/12/06 01:38:16;;;;;;;8.38;4.55;;;23.30;50.40;;;;;;5052916;28;20064;-66
2023/12/06 01:40:43;;;;;;;8.05;4.45;;;23.40;50.30;;;;;;5052661;28;20047;-68
2023/12/06 01:43:09;;;;;;;7.03;4.22;;;23.40;50.20;;;;;;5035014;28;20033;-68
2023/12/06 01:45:35;;;;;;;5.63;4.22;;;23.40;50.20;;;;;;5052165;28;20036;-66
2023/12/06 01:48:03;;;;;;;7.80;4.40;;;23.40;50.10;;;;;;5052841;28;20041;-68
2023/12/06 01:50:30;;;;;;;5.05;3.88;;;23.30;50.10;;;;;;5052448;28;20034;-68
2023/12/06 01:52:59;;;;;;;6.50;4.07;;;23.30;50.10;;;;;;5053018;28;20029;-67
2023/12/06 01:55:25;;;;;;;5.85;4.00;;;23.30;50.00;;;;;;5052560;28;20037;-68
2023/12/06 01:57:52;;;;;;;5.25;3.95;;;23.40;49.90;;;;;;5052471;28;20033;-67
2023/12/06 02:00:18;;;;;;;5.72;4.10;;;23.30;49.90;;;;;;5052221;28;20461;-68
2023/12/06 02:02:45;;;;;;;8.07;4.38;;;23.20;49.80;;;;;;5052161;28;20416;-68
2023/12/06 02:05:14;;;;;;;6.82;4.32;;;23.30;49.80;;;;;;5052528;28;20040;-68
2023/12/06 02:07:41;;;;;;;6.30;4.30;;;23.20;49.80;;;;;;5052349;28;20481;-67
2023/12/06 02:10:07;;;;;;;8.43;4.50;;;23.30;49.90;;;;;;5052392;28;20047;-68
2023/12/06 02:12:33;;;;;;;6.35;4.53;;;23.40;49.90;;;;;;5016854;28;20037;-67
2023/12/06 02:15:00;;;;;;;6.45;3.92;;;23.30;49.90;;;;;;5052312;28;20078;-68
2023/12/06 02:17:28;;;;;;;7.35;4.50;;;23.20;49.80;;;;;;5052092;28;20094;-67
2023/12/06 02:19:55;;;;;;;6.05;3.83;;;23.40;49.80;;;;;;5051890;28;20041;-67
2023/12/06 02:22:23;;;;;;;7.28;4.72;;;23.40;49.80;;;;;;5052102;28;20060;-67
2023/12/06 02:24:53;;;;;;;7.20;4.53;;;23.30;49.70;;;;;;5052086;28;20041;-68
2023/12/06 02:27:21;;;;;;;6.20;4.20;;;23.40;49.70;;;;;;5033929;28;20059;-68
2023/12/06 02:29:47;;;;;;;5.80;4.18;;;23.40;49.70;;;;;;5052234;28;20040;-68
2023/12/06 02:32:13;;;;;;;9.35;4.78;;;23.40;49.60;;;;;;5051557;28;20119;-67
2023/12/06 02:34:40;;;;;;;8.10;4.97;;;23.40;49.50;;;;;;5051814;28;20118;-68
2023/12/06 02:37:08;;;;;;;6.75;4.80;;;23.40;49.50;;;;;;5051800;28;20040;-68
2023/12/06 02:39:37;;;;;;;8.95;4.78;;;23.20;49.40;;;;;;5051657;28;20402;-67
2023/12/06 02:42:03;;;;;;;7.93;4.10;;;23.40;49.50;;;;;;5051499;28;20033;-67
2023/12/06 02:44:30;;;;;;;6.05;4.50;;;23.30;49.50;;;;;;5033650;28;20032;-68
2023/12/06 02:46:56;;;;;;;7.13;4.68;;;23.10;49.50;;;;;;5051587;28;20401;-68
2023/12/06 02:49:22;;;;;;;7.70;4.95;;;23.10;49.50;;;;;;5051487;28;20032;-67
2023/12/06 02:51:48;;;;;;;8.60;4.72;;;23.20;49.50;;;;;;5016135;28;20037;-67
2023/12/06 02:54:14;;;;;;;8.88;5.18;;;23.10;49.60;;;;;;5051172;28;20527;-68
2023/12/06 02:56:40;;;;;;;7.90;5.10;;;23.20;49.70;;;;;;5050501;28;20040;-67
2023/12/06 02:59:06;;;;;;;5.93;4.63;;;23.10;49.70;;;;;;5051341;28;20043;-68
2023/12/06 03:01:32;;;;;;;8.15;4.65;;;23.10;49.70;;;;;;5051507;28;20029;-67
2023/12/06 03:03:58;;;;;;;6.82;4.90;;;23.10;49.70;;;;;;5051381;28;20065;-67
2023/12/06 03:06:24;;;;;;;10.60;5.30;;;23.10;49.60;;;;;;5051052;28;20053;-67
2023/12/06 03:08:50;;;;;;;9.05;4.70;;;23.20;49.60;;;;;;5035906;28;20037;-68
2023/12/06 03:11:16;;;;;;;8.20;5.25;;;23.20;49.50;;;;;;5051063;28;20082;-67
2023/12/06 03:13:42;;;;;;;10.65;4.93;;;23.20;49.50;;;;;;5051135;28;20465;-67
2023/12/06 03:16:09;;;;;;;7.38;4.50;;;23.20;49.50;;;;;;5047066;28;20056;-68
2023/12/06 03:18:35;;;;;;;11.65;5.10;;;23.20;49.50;;;;;;5071089;28;20032;-67
2023/12/06 03:21:01;;;;;;;8.48;4.70;;;23.20;49.40;;;;;;5069643;28;20123;-68
2023/12/06 03:23:27;;;;;;;8.95;5.60;;;23.30;49.40;;;;;;5071019;28;20032;-68
2023/12/06 03:25:53;;;;;;;8.88;5.15;;;23.10;49.30;;;;;;5071209;28;20028;-68
2023/12/06 03:28:19;;;;;;;7.93;5.13;;;23.30;49.30;;;;;;5071115;28;20051;-67
2023/12/06 03:30:45;;;;;;;7.15;4.50;;;23.20;49.30;;;;;;5071002;28;20036;-66
2023/12/06 03:33:11;;;;;;;7.30;5.05;;;23.20;49.30;;;;;;5070890;28;20469;-68
2023/12/06 03:35:37;;;;;;;6.38;4.90;;;23.30;49.40;;;;;;5070908;28;20587;-67
2023/12/06 03:38:03;;;;;;;7.88;4.97;;;23.10;49.40;;;;;;5070919;28;20123;-67
2023/12/06 03:40:29;;;;;;;8.75;5.68;;;23.10;49.40;;;;;;5051824;28;20060;-66
2023/12/06 03:42:55;;;;;;;9.35;5.72;;;23.10;49.40;;;;;;5070754;28;20218;-68
2023/12/06 03:45:22;;;;;;;8.57;5.40;;;23.00;49.40;;;;;;5070930;28;20111;-68
2023/12/06 03:47:48;;;;;;;9.75;5.22;;;23.00;49.50;;;;;;5070789;28;20033;-67
2023/12/06 03:50:14;;;;;;;7.95;5.25;;;23.00;49.60;;;;;;5069657;28;20460;-68
2023/12/06 03:52:40;;;;;;;10.13;5.55;;;23.00;49.70;;;;;;5070748;28;20028;-67
2023/12/06 03:55:07;;;;;;;6.50;5.18;;;23.00;49.70;;;;;;5070872;28;20037;-68
2023/12/06 03:57:33;;;;;;;10.90;5.75;;;23.10;49.80;;;;;;5070814;28;20035;-68
2023/12/06 03:59:59;;;;;;;8.35;5.22;;;23.10;49.80;;;;;;5070819;28;20024;-68
2023/12/06 04:02:25;;;;;;;8.20;4.78;;;23.00;49.70;;;;;;5070748;28;20047;-67
2023/12/06 04:04:52;;;;;;;7.47;5.40;;;23.10;49.80;;;;;;5070943;28;20028;-68
2023/12/06 04:07:18;;;;;;;7.97;5.43;;;23.10;49.80;;;;;;5071294;28;20059;-68
2023/12/06 04:09:44;;;;;;;7.88;4.72;;;23.10;49.80;;;;;;5074801;28;20097;-66
2023/12/06 04:12:10;;;;;;;6.63;4.93;;;23.10;49.70;;;;;;5074386;28;20043;-66
2023/12/06 04:14:36;;;;;;;6.50;4.60;;;23.10;49.70;;;;;;5069684;28;20124;-68
2023/12/06 04:17:02;;;;;;;7.93;5.00;;;23.30;49.70;;;;;;5054592;28;20059;-68
2023/12/06 04:19:28;;;;;;;9.68;5.38;;;23.20;49.60;;;;;;5054425;28;20546;-67
2023/12/06 04:21:54;;;;;;;6.88;5.43;;;23.10;49.60;;;;;;5054311;28;20865;-68
2023/12/06 04:24:20;;;;;;;6.97;5.03;;;23.20;49.60;;;;;;5054435;28;20037;-68
2023/12/06 04:26:46;;;;;;;9.82;6.00;;;23.30;49.70;;;;;;5054359;28;20068;-68
2023/12/06 04:29:12;;;;;;;12.35;5.93;;;23.00;49.60;;;;;;5054388;28;20044;-68
2023/12/06 04:31:38;;;;;;;8.38;5.50;;;23.00;49.70;;;;;;5054243;28;20029;-68
2023/12/06 04:34:04;;;;;;;7.32;4.70;;;23.00;49.70;;;;;;5054047;28;20060;-67
2023/12/06 04:36:30;;;;;;;9.07;4.85;;;23.00;49.80;;;;;;5036341;28;20141;-68
2023/12/06 04:38:56;;;;;;;9.60;2.33;;;23.00;49.80;;;;;;5054186;28;20029;-68
2023/12/06 04:41:22;;;;;;;5.43;2.97;;;22.90;49.90;;;;;;5053807;28;20035;-65
2023/12/06 04:43:48;;;;;;;1.70;1.45;;;23.00;50.00;;;;;;5054081;28;20033;-67
2023/12/06 04:46:15;;;;;;;2.08;1.60;;;23.00;49.90;;;;;;5054262;28;20031;-68
2023/12/06 04:48:40;;;;;;;5.13;4.03;;;23.00;49.90;;;;;;5053771;28;20116;-69
2023/12/06 04:51:06;;;;;;;6.85;4.57;;;22.90;49.90;;;;;;5053804;28;20473;-67
2023/12/06 04:53:33;;;;;;;2.05;1.55;;;23.00;49.80;;;;;;5054033;28;20041;-66
2023/12/06 04:55:59;;;;;;;2.95;2.25;;;23.00;49.80;;;;;;5053876;28;20040;-66
2023/12/06 04:58:25;;;;;;;0.95;0.90;;;23.00;49.80;;;;;;5053742;28;20045;-66
2023/12/06 05:00:52;;;;;;;3.38;2.25;;;23.10;49.90;;;;;;5053601;28;20435;-65
2023/12/06 05:03:19;;;;;;;2.03;1.85;;;23.10;49.90;;;;;;5053418;28;20501;-68
2023/12/06 05:05:45;;;;;;;1.58;1.25;;;23.00;49.80;;;;;;5017936;28;20049;-67
2023/12/06 05:08:11;;;;;;;3.70;2.55;;;23.10;49.30;;;;;;5053465;28;20060;-67
2023/12/06 05:10:38;;;;;;;3.80;3.03;;;23.10;48.40;;;;;;5054772;28;20730;-69
2023/12/06 05:13:04;;;;;;;7.47;3.70;;;23.20;46.90;;;;;;5053425;28;20036;-69
2023/12/06 05:15:30;;;;;;;7.75;6.25;;;23.10;45.10;;;;;;5055902;28;20061;-65
2023/12/06 05:17:56;;;;;;;5.38;4.72;;;23.20;40.00;;;;;;5053246;28;20025;-66
2023/12/06 05:20:23;;;;;;;7.75;5.47;;;23.00;37.30;;;;;;5052158;28;20052;-65
2023/12/06 05:22:50;;;;;;;5.78;4.60;;;23.00;37.30;;;;;;5017542;28;20076;-67
2023/12/06 05:25:16;;;;;;;9.23;5.10;;;23.00;37.20;;;;;;5053314;28;20473;-66
2023/12/06 05:27:42;;;;;;;6.57;4.90;;;22.90;37.60;;;;;;5053101;28;20029;-66
2023/12/06 05:30:08;;;;;;;7.22;4.88;;;22.90;37.90;;;;;;5052996;28;20029;-65
2023/12/06 05:32:35;;;;;;;7.38;4.90;;;22.90;37.30;;;;;;5052915;28;20048;-65
2023/12/06 05:35:02;;;;;;;9.55;4.80;;;22.80;37.70;;;;;;5053093;28;20033;-66
2023/12/06 05:37:28;;;;;;;6.18;4.10;;;22.80;39.10;;;;;;5063582;28;20124;-66
2023/12/06 05:39:54;;;;;;;5.72;3.85;;;22.80;42.90;;;;;;5072928;28;20527;-67
2023/12/06 05:42:20;;;;;;;5.00;3.83;;;22.90;45.30;;;;;;5072883;28;20028;-66
2023/12/06 05:44:45;;;;;;;8.60;3.60;;;23.00;44.50;;;;;;5017033;28;20406;-67
2023/12/06 05:47:12;;;;;;;6.85;4.07;;;23.10;42.40;;;;;;5052632;28;20477;-67
2023/12/06 05:49:38;;;;;;;5.78;3.25;;;23.00;42.50;;;;;;5052602;28;20037;-65
2023/12/06 05:52:04;;;;;;;11.02;6.80;;;23.00;43.30;;;;;;5052582;28;20060;-65
2023/12/06 05:54:30;;;;;;;8.18;5.95;;;23.00;48.50;;;;;;5052567;28;20041;-66
2023/12/06 05:56:58;;;;;;;9.25;6.30;;;23.10;48.30;;;;;;5052754;28;20025;-64
2023/12/06 05:59:24;;;;;;;12.02;6.55;;;23.20;52.30;;;;;;5052327;28;20071;-66
2023/12/06 06:01:50;;;;;;;9.75;5.05;;;23.30;49.40;;;;;;5052657;28;20029;-66
2023/12/06 06:04:16;;;;;;;11.98;7.32;;;23.30;49.00;;;;;;5052732;28;20028;-66
2023/12/06 06:06:42;;;;;;;10.13;7.13;;;23.30;48.90;;;;;;5052527;28;20388;-65
2023/12/06 06:09:09;;;;;;;10.15;7.03;;;23.20;48.60;;;;;;5016984;28;20500;-66
2023/12/06 06:11:35;;;;;;;12.18;8.18;;;23.20;48.60;;;;;;5052106;28;20488;-65
2023/12/06 06:14:01;;;;;;;6.45;4.20;;;23.10;48.80;;;;;;5052254;28;20489;-65
2023/12/06 06:16:27;;;;;;;10.73;7.30;;;23.10;49.00;;;;;;5052307;28;20052;-65
2023/12/06 06:18:53;;;;;;;10.00;6.07;;;23.30;49.20;;;;;;5052423;28;20029;-67
2023/12/06 06:21:19;;;;;;;11.00;6.65;;;23.20;49.20;;;;;;5052118;28;20044;-65
2023/12/06 06:23:45;;;;;;;10.35;7.15;;;23.30;49.60;;;;;;5052220;28;20121;-67
2023/12/06 06:26:12;;;;;;;17.02;7.20;;;23.10;49.70;;;;;;5052043;28;20118;-66
2023/12/06 06:28:38;;;;;;;8.82;6.82;;;23.10;50.00;;;;;;5051876;28;20028;-65
2023/12/06 06:31:04;;;;;;;12.55;7.55;;;23.10;50.20;;;;;;4999953;28;20135;-65
2023/12/06 06:33:30;;;;;;;11.93;7.15;;;23.30;50.50;;;;;;5055205;28;20035;-66
2023/12/06 06:35:56;;;;;;;12.90;7.78;;;23.10;50.40;;;;;;5061283;28;20657;-66
2023/12/06 06:38:22;;;;;;;8.32;6.32;;;23.30;50.50;;;;;;5051639;28;20121;-66
2023/12/06 06:40:48;;;;;;;13.20;7.35;;;23.30;50.50;;;;;;5016386;28;20099;-65
2023/12/06 06:43:14;;;;;;;11.52;7.35;;;23.20;50.50;;;;;;5067891;28;20028;-66
2023/12/06 06:45:42;;;;;;;11.55;7.65;;;23.30;50.50;;;;;;5071836;28;20090;-65
2023/12/06 06:48:12;;;;;;;11.00;6.70;;;23.20;50.50;;;;;;5071110;28;20089;-65
2023/12/06 06:50:38;;;;;;;11.73;6.03;;;23.20;50.60;;;;;;5064290;28;20037;-66
2023/12/06 06:53:04;;;;;;;9.95;6.47;;;23.30;50.60;;;;;;5051324;28;20092;-64
2023/12/06 06:55:30;;;;;;;10.85;7.05;;;23.30;50.60;;;;;;5016149;28;20029;-65
2023/12/06 06:58:00;;;;;;;10.80;7.00;;;23.20;50.90;;;;;;5051407;28;20035;-67
2023/12/06 07:00:26;;;;;;;10.02;7.75;;;23.30;51.20;;;;;;5051443;28;20461;-66
2023/12/06 07:02:52;;;;;;;4.82;2.95;;;23.20;51.30;;;;;;5062840;28;20059;-67
2023/12/06 07:05:18;;;;;;;7.00;3.17;;;23.30;50.20;;;;;;5054396;28;20037;-66
2023/12/06 07:07:44;;;;;;;8.45;4.60;;;23.40;47.60;;;;;;5058251;28;20029;-65
2023/12/06 07:10:10;;;;;;;16.65;9.07;;;23.40;48.90;;;;;;5070825;28;20442;-65
2023/12/06 07:12:37;;;;;;;11.45;6.97;;;23.50;49.70;;;;;;5052865;28;20445;-66
2023/12/06 07:15:04;;;;;;;12.82;6.78;;;23.40;49.20;;;;;;5050832;28;20053;-65
2023/12/06 07:17:31;;;;;;;11.38;6.80;;;23.50;49.00;;;;;;5053564;28;20037;-70
2023/12/06 07:19:58;;;;;;;8.05;5.93;;;23.30;49.10;;;;;;5051055;28;20037;-67
2023/12/06 07:22:24;;;;;;;8.35;5.50;;;23.50;49.50;;;;;;5050634;28;20045;-67
2023/12/06 07:24:50;;;;;;;10.85;6.47;;;23.40;49.70;;;;;;5051089;28;20117;-66
2023/12/06 07:27:16;;;;;;;7.78;4.70;;;23.40;49.70;;;;;;5050905;28;20389;-67
2023/12/06 07:29:43;;;;;;;7.57;5.28;;;23.50;49.90;;;;;;5050892;28;20037;-68
2023/12/06 07:32:09;;;;;;;4.72;3.67;;;23.40;49.80;;;;;;5032467;28;20094;-65
2023/12/06 07:34:35;;;;;;;8.52;4.93;;;23.40;49.80;;;;;;5050866;28;20068;-66
2023/12/06 07:37:01;;;;;;;8.45;5.50;;;23.40;49.70;;;;;;5050911;28;20110;-66
2023/12/06 07:39:27;;;;;;;6.47;2.30;;;23.60;49.70;;;;;;5033084;28;20033;-66
2023/12/06 07:41:53;;;;;;;3.28;2.15;;;23.40;49.60;;;;;;5052263;28;20562;-65
2023/12/06 07:44:20;;;;;;;3.30;2.00;;;23.60;49.60;;;;;;5050567;28;20067;-66
2023/12/06 07:46:48;;;;;;;2.28;1.85;;;23.50;49.60;;;;;;5050621;28;20052;-67
2023/12/06 07:49:15;;;;;;;5.85;1.70;;;23.50;49.50;;;;;;5050828;28;20033;-67
2023/12/06 07:51:41;;;;;;;2.83;1.70;;;23.40;49.40;;;;;;5050781;28;20033;-67
2023/12/06 07:54:08;;;;;;;5.88;2.30;;;23.40;49.20;;;;;;5050236;28;20044;-68
2023/12/06 07:56:35;;;;;;;3.45;1.90;;;23.40;48.60;;;;;;5063375;28;20119;-67
2023/12/06 07:59:01;;;;;;;5.43;2.80;;;23.40;49.00;;;;;;5070674;28;20101;-68
2023/12/06 08:01:31;;;;;;;4.18;3.13;;;23.40;48.60;;;;;;5070738;28;20047;-67
2023/12/06 08:03:57;;;;;;;5.43;3.00;;;23.40;47.10;;;;;;5070396;28;20029;-67
2023/12/06 08:06:23;;;;;;;6.07;2.70;;;23.30;46.30;;;;;;5052654;28;20037;-67
2023/12/06 08:08:53;;;;;;;6.43;3.05;;;23.30;45.40;;;;;;5070359;28;20074;-65
2023/12/06 08:11:19;;;;;;;3.60;3.05;;;23.30;44.60;;;;;;5019772;28;20040;-67
2023/12/06 08:13:48;;;;;;;5.53;3.00;;;23.20;44.10;;;;;;5070642;28;20028;-66
2023/12/06 08:16:14;;;;;;;3.85;2.70;;;23.40;43.40;;;;;;5070159;28;20059;-67
2023/12/06 08:18:41;;;;;;;6.15;3.30;;;23.10;42.90;;;;;;5051442;28;20452;-67
2023/12/06 08:21:10;;;;;;;5.53;2.97;;;23.20;42.70;;;;;;5070227;28;20115;-72
2023/12/06 08:23:36;;;;;;;5.85;3.72;;;23.20;42.40;;;;;;5070745;28;20495;-68
2023/12/06 08:26:06;;;;;;;6.93;3.05;;;23.30;42.10;;;;;;5070251;28;20075;-66
2023/12/06 08:28:33;;;;;;;3.55;3.08;;;23.30;41.90;;;;;;5018105;28;20040;-67
2023/12/06 08:30:59;;;;;;;5.63;3.42;;;23.30;42.10;;;;;;5070292;28;20506;-69
2023/12/06 08:33:25;;;;;;;6.15;3.58;;;23.30;42.30;;;;;;5070459;28;20532;-69
2023/12/06 08:35:51;;;;;;;5.00;4.03;;;23.20;42.50;;;;;;5070246;28;20116;-67
2023/12/06 08:38:17;;;;;;;5.88;3.97;;;23.10;43.20;;;;;;5070520;28;20041;-68
2023/12/06 08:40:43;;;;;;;4.43;3.75;;;23.10;43.70;;;;;;5070063;28;20498;-67
2023/12/06 08:43:09;;;;;;;7.15;4.53;;;23.00;43.90;;;;;;5051961;28;20037;-68
2023/12/06 08:45:35;;;;;;;5.72;3.90;;;23.10;44.20;;;;;;5050148;28;20131;-65
2023/12/06 08:48:01;;;;;;;5.93;4.00;;;23.10;44.40;;;;;;5050040;28;20055;-67
2023/12/06 08:50:27;;;;;;;4.05;3.65;;;23.00;44.50;;;;;;5050205;28;20041;-65
2023/12/06 08:52:53;;;;;;;4.85;4.10;;;23.10;45.00;;;;;;5014647;28;20159;-68
2023/12/06 08:55:19;;;;;;;5.78;4.35;;;23.00;44.90;;;;;;5054526;28;20068;-67
2023/12/06 08:57:45;;;;;;;4.90;3.85;;;23.00;45.30;;;;;;5073736;28;20452;-68
2023/12/06 09:00:12;;;;;;;7.13;4.30;;;23.00;45.70;;;;;;5073483;28;20028;-71
2023/12/06 09:02:47;;;;;;;6.97;4.90;;;22.90;46.10;;;;;;5073277;28;20175;-68
2023/12/06 09:05:13;;;;;;;7.68;4.30;;;23.00;46.20;;;;;;5073336;28;20045;-67
2023/12/06 09:07:40;;;;;;;8.15;3.90;;;23.00;46.30;;;;;;5073380;28;20043;-68
2023/12/06 09:10:08;;;;;;;5.55;4.57;;;22.90;46.30;;;;;;5073116;28;20049;-67
2023/12/06 09:12:34;;;;;;;4.32;3.25;;;23.00;46.40;;;;;;5070301;28;20055;-67
2023/12/06 09:15:00;;;;;;;7.35;4.90;;;23.00;47.10;;;;;;5072992;28;20036;-67
2023/12/06 09:17:26;;;;;;;9.40;4.22;;;23.00;47.40;;;;;;5073485;28;20047;-68
2023/12/06 09:19:52;;;;;;;6.63;4.57;;;23.00;47.50;;;;;;5055507;28;20119;-67
2023/12/06 09:22:20;;;;;;;8.65;4.60;;;23.10;47.60;;;;;;5073047;28;20058;-68
2023/12/06 09:24:47;;;;;;;6.53;4.75;;;23.00;47.50;;;;;;5073226;28;20036;-67
2023/12/06 09:27:15;;;;;;;8.57;6.00;;;23.00;47.50;;;;;;5072774;28;20074;-67
2023/12/06 09:29:45;;;;;;;7.55;4.60;;;22.90;47.60;;;;;;5073224;28;20043;-68
2023/12/06 09:32:11;;;;;;;6.82;4.57;;;22.90;47.70;;;;;;5072691;28;20120;-67
2023/12/06 09:34:38;;;;;;;7.88;5.43;;;22.90;48.10;;;;;;5073040;28;20044;-68
2023/12/06 09:37:04;;;;;;;6.35;5.05;;;22.90;49.50;;;;;;5072729;28;20033;-68
2023/12/06 09:39:30;;;;;;;6.20;4.55;;;22.90;49.30;;;;;;5072757;28;20035;-69
2023/12/06 09:41:56;;;;;;;6.15;4.63;;;23.00;54.40;;;;;;5066981;28;20025;-68
2023/12/06 09:44:22;;;;;;;7.43;5.22;;;23.20;53.30;;;;;;5034269;28;20106;-67
2023/12/06 09:46:53;;;;;;;8.35;4.97;;;23.60;51.90;;;;;;5052586;28;20653;-66
2023/12/06 09:49:19;;;;;;;8.82;4.45;;;23.60;50.80;;;;;;5052757;28;20123;-68
2023/12/06 09:51:46;;;;;;;10.43;5.75;;;23.70;49.20;;;;;;5052684;28;20148;-68
2023/12/06 09:54:12;;;;;;;9.15;5.88;;;23.60;48.50;;;;;;5052556;28;20035;-69
2023/12/06 09:56:38;;;;;;;9.68;5.20;;;23.50;48.50;;;;;;5065974;28;20434;-69
2023/12/06 09:59:04;;;;;;;6.78;5.40;;;23.50;48.60;;;;;;5072627;28;20025;-68
2023/12/06 10:01:30;;;;;;;9.13;5.50;;;23.40;49.00;;;;;;5036778;28;20044;-69
2023/12/06 10:03:56;;;;;;;7.72;5.85;;;23.40;49.20;;;;;;5067714;28;20032;-68
2023/12/06 10:06:23;;;;;;;5.88;4.63;;;23.30;49.20;;;;;;5012670;28;20088;-68
2023/12/06 10:08:55;;;;;;;8.05;5.50;;;23.50;49.30;;;;;;5052524;28;20070;-70
2023/12/06 10:11:24;;;;;;;3.13;2.30;;;23.40;49.10;;;;;;5052510;28;20051;-68
2023/12/06 10:13:51;;;;;;;3.42;2.58;;;23.50;50.10;;;;;;5052197;28;20282;-68
2023/12/06 10:16:19;;;;;;;11.80;4.15;;;23.80;49.80;;;;;;5052223;28;20060;-69
2023/12/06 10:18:47;;;;;;;19.67;4.47;;;24.00;48.20;;;;;;5052772;28;20498;-68
2023/12/06 10:21:13;;;;;;;8.02;3.90;;;24.10;49.10;;;;;;5070653;28;20442;-69
2023/12/06 10:23:39;;;;;;;6.07;3.60;;;24.30;51.30;;;;;;5072228;28;20040;-70
2023/12/06 10:26:11;;;;;;;5.45;2.80;;;24.30;44.40;;;;;;5071937;28;20032;-73
2023/12/06 10:28:37;;;;;;;8.95;4.13;;;24.30;46.20;;;;;;5072174;28;20488;-70
2023/12/06 10:31:05;;;;;;;2.80;2.00;;;24.20;46.90;;;;;;5067770;28;20158;-69
2023/12/06 10:33:31;;;;;;;4.82;2.90;;;24.00;47.90;;;;;;5061594;28;20036;-67
2023/12/06 10:36:02;;;;;;;8.93;3.80;;;24.20;47.00;;;;;;5063619;28;20045;-66
2023/12/06 10:38:29;;;;;;;3.45;2.97;;;24.70;55.10;;;;;;5052010;28;20033;-67
2023/12/06 10:40:58;;;;;;;7.80;6.03;;;25.00;50.50;;;;;;5065456;28;20043;-67
2023/12/06 10:43:26;;;;;;;7.00;4.28;;;24.90;49.10;;;;;;5071627;28;20033;-67
2023/12/06 10:45:53;;;;;;;7.93;5.10;;;24.70;48.90;;;;;;5071714;28;20040;-67
2023/12/06 10:48:21;;;;;;;7.82;4.97;;;24.60;48.30;;;;;;5067211;28;20092;-68
2023/12/06 10:50:49;;;;;;;7.15;5.07;;;24.60;48.10;;;;;;5051754;28;20079;-68
2023/12/06 10:53:17;;;;;;;6.68;4.93;;;24.50;48.30;;;;;;5051373;28;20025;-70
2023/12/06 10:55:46;;;;;;;7.85;5.75;;;24.50;48.30;;;;;;5034026;28;20041;-70
2023/12/06 10:58:12;;;;;;;7.95;4.85;;;24.30;48.10;;;;;;5051688;28;20144;-69
2023/12/06 11:00:39;;;;;;;7.03;5.10;;;24.40;48.20;;;;;;5032562;28;20044;-69
2023/12/06 11:03:05;;;;;;;8.32;5.07;;;24.30;48.50;;;;;;5051157;28;20025;-67
2023/12/06 11:05:39;;;;;;;7.93;4.78;;;24.30;48.60;;;;;;5068247;28;20032;-68
2023/12/06 11:08:43;;;;;;;8.00;5.18;;;24.30;48.50;;;;;;5051515;28;20040;-68
2023/12/06 11:11:37;;;;;;;6.43;4.45;;;24.40;48.60;;;;;;4989441;28;20129;-68
2023/12/06 11:14:13;;;;;;;4.93;3.50;;;24.20;48.70;;;;;;4989827;28;20034;-68
2023/12/06 11:17:16;;;;;;;7.38;4.75;;;24.30;48.80;;;;;;4995085;28;20071;-69
2023/12/06 11:19:43;;;;;;;9.10;5.90;;;25.20;58.10;;;;;;5028904;28;20183;-66
2023/12/06 11:22:09;;;;;;;7.07;5.30;;;27.10;58.00;;;;;;5028706;28;20047;-72
2023/12/06 11:24:36;;;;;;;9.75;5.35;;;27.40;58.30;;;;;;5024791;28;20405;-71
2023/12/06 11:27:03;;;;;;;4.43;2.70;;;27.10;51.60;;;;;;5028656;28;20045;-72
2023/12/06 11:29:30;;;;;;;8.50;5.60;;;26.60;49.00;;;;;;5028752;28;20081;-70
2023/12/06 11:31:58;;;;;;;7.22;5.18;;;26.10;48.30;;;;;;5028397;28;20401;-71
2023/12/06 11:34:33;;;;;;;12.38;5.25;;;25.90;47.00;;;;;;5025263;28;20068;-73
2023/12/06 11:37:03;;;;;;;6.93;4.32;;;25.60;47.00;;;;;;5028402;28;20142;-71
2023/12/06 11:39:29;;;;;;;4.25;2.90;;;25.60;47.40;;;;;;5032924;28;20044;-71
2023/12/06 11:41:58;;;;;;;8.50;4.68;;;25.30;48.00;;;;;;5059767;28;20110;-69
2023/12/06 11:44:25;;;;;;;6.60;4.35;;;25.30;49.70;;;;;;5070923;28;20031;-69
2023/12/06 11:46:52;;;;;;;4.75;2.67;;;25.20;49.20;;;;;;5070867;28;20045;-70
2023/12/06 11:49:27;;;;;;;10.73;5.57;;;25.10;49.00;;;;;;5071030;28;20147;-69
2023/12/06 11:52:02;;;;;;;5.78;4.38;;;25.00;48.70;;;;;;5070855;28;20077;-70
2023/12/06 11:54:29;;;;;;;7.55;4.57;;;25.10;49.00;;;;;;5071070;28;20487;-70
2023/12/06 11:57:08;;;;;;;8.10;5.95;;;25.10;49.20;;;;;;5070748;28;20456;-68
2023/12/06 11:59:34;;;;;;;7.07;5.03;;;25.00;49.30;;;;;;5070813;28;20044;-70
2023/12/06 12:02:01;;;;;;;10.60;4.82;;;25.00;49.50;;;;;;5070579;28;20039;-71
2023/12/06 12:04:28;;;;;;;5.75;4.70;;;25.00;49.70;;;;;;5071155;28;20042;-70
2023/12/06 12:06:58;;;;;;;9.05;5.35;;;24.90;49.80;;;;;;5070482;28;20029;-70
2023/12/06 12:09:25;;;;;;;6.20;4.13;;;24.60;49.80;;;;;;5070774;28;20115;-70
2023/12/06 12:11:52;;;;;;;6.18;3.78;;;24.70;50.00;;;;;;5070491;28;20416;-70
2023/12/06 12:14:19;;;;;;;5.82;3.65;;;24.60;50.10;;;;;;5066577;28;20135;-70
2023/12/06 12:16:45;;;;;;;7.50;4.13;;;24.60;50.20;;;;;;5050301;28;20103;-71
2023/12/06 12:19:11;;;;;;;8.68;5.60;;;24.50;50.20;;;;;;5055010;28;20442;-72
2023/12/06 12:21:37;;;;;;;5.45;3.35;;;24.50;50.20;;;;;;5050496;28;20087;-69
2023/12/06 12:24:03;;;;;;;2.63;2.17;;;24.70;54.30;;;;;;5050337;28;20123;-74
2023/12/06 12:26:30;;;;;;;5.45;4.80;;;25.00;52.90;;;;;;5060433;28;20033;-74
2023/12/06 12:28:58;;;;;;;6.82;4.28;;;25.40;55.90;;;;;;5058679;28;20037;-69
2023/12/06 12:31:28;;;;;;;6.00;2.35;;;25.90;60.00;;;;;;5057209;28;20025;-68
2023/12/06 12:33:55;;;;;;;3.35;2.38;;;26.20;58.70;;;;;;5053898;28;20435;-69
2023/12/06 12:36:21;;;;;;;8.10;4.70;;;26.40;62.50;;;;;;5057141;28;20408;-71
2023/12/06 12:38:47;;;;;;;4.72;3.28;;;26.50;63.80;;;;;;5056728;28;20091;-68
2023/12/06 12:41:14;;;;;;;9.05;6.32;;;26.60;58.60;;;;;;5054470;28;20028;-71
2023/12/06 12:43:40;;;;;;;5.20;4.20;;;26.20;52.90;;;;;;5074007;28;20060;-68